sensor_id;sensor_type;location;lat;lon;timestamp;P1;durP1;ratioP1;P2;durP2;ratioP2
57457;SDS011;43304;52.332;6.110;2023-04-06T00:01:02;17.25;;;14.95;;
57457;SDS011;43304;52.332;6.110;2023-04-06T00:03:29;14.65;;;13.15;;
57457;SDS011;43304;52.332;6.110;2023-04-06T00:05:57;13.50;;;12.00;;
57457;SDS011;43304;52.332;6.110;2023-04-06T00:08:24;13.10;;;11.80;;
57457;SDS011;43304;52.332;6.110;2023-04-06T00:10:52;12.63;;;11.40;;
57457;SDS011;43304;52.332;6.110;2023-04-06T00:13:19;12.63;;;11.27;;
57457;SDS011;43304;52.332;6.110;2023-04-06T00:15:46;12.80;;;11.50;;
57457;SDS011;43304;52.332;6.110;2023-04-06T00:18:13;13.00;;;11.70;;
57457;SDS011;43304;52.332;6.110;2023-04-06T00:20:40;12.50;;;11.40;;
57457;SDS011;43304;52.332;6.110;2023-04-06T00:23:07;13.10;;;11.80;;
57457;SDS011;43304;52.332;6.110;2023-04-06T00:25:34;12.73;;;11.40;;
57457;SDS011;43304;52.332;6.110;2023-04-06T00:28:01;12.95;;;11.52;;
57457;SDS011;43304;52.332;6.110;2023-04-06T00:30:30;13.27;;;11.90;;
57457;SDS011;43304;52.332;6.110;2023-04-06T00:32:57;13.65;;;12.25;;
57457;SDS011;43304;52.332;6.110;2023-04-06T00:35:24;13.35;;;11.98;;
57457;SDS011;43304;52.332;6.110;2023-04-06T00:37:51;13.20;;;12.00;;
57457;SDS011;43304;52.332;6.110;2023-04-06T00:40:18;12.80;;;11.63;;
57457;SDS011;43304;52.332;6.110;2023-04-06T00:42:45;12.30;;;11.10;;
57457;SDS011;43304;52.332;6.110;2023-04-06T00:45:12;12.75;;;11.45;;
57457;SDS011;43304;52.332;6.110;2023-04-06T00:47:39;13.13;;;11.82;;
57457;SDS011;43304;52.332;6.110;2023-04-06T00:50:06;13.40;;;12.10;;
57457;SDS011;43304;52.332;6.110;2023-04-06T00:52:34;13.65;;;12.25;;
57457;SDS011;43304;52.332;6.110;2023-04-06T00:55:02;13.70;;;12.48;;
57457;SDS011;43304;52.332;6.110;2023-04-06T00:57:30;13.45;;;12.15;;
57457;SDS011;43304;52.332;6.110;2023-04-06T00:59:58;13.73;;;12.43;;
57457;SDS011;43304;52.332;6.110;2023-04-06T01:02:25;14.10;;;12.70;;
57457;SDS011;43304;52.332;6.110;2023-04-06T01:04:52;13.55;;;12.23;;
57457;SDS011;43304;52.332;6.110;2023-04-06T01:07:21;13.87;;;12.57;;
57457;SDS011;43304;52.332;6.110;2023-04-06T01:09:47;14.52;;;13.13;;
57457;SDS011;43304;52.332;6.110;2023-04-06T01:12:14;14.82;;;13.32;;
57457;SDS011;43304;52.332;6.110;2023-04-06T01:14:41;13.80;;;12.50;;
57457;SDS011;43304;52.332;6.110;2023-04-06T01:17:08;14.57;;;13.07;;
57457;SDS011;43304;52.332;6.110;2023-04-06T01:19:36;15.55;;;14.05;;
57457;SDS011;43304;52.332;6.110;2023-04-06T01:22:03;15.93;;;14.43;;
57457;SDS011;43304;52.332;6.110;2023-04-06T01:24:31;15.40;;;14.00;;
57457;SDS011;43304;52.332;6.110;2023-04-06T01:26:59;15.40;;;14.00;;
57457;SDS011;43304;52.332;6.110;2023-04-06T01:29:27;16.98;;;15.27;;
57457;SDS011;43304;52.332;6.110;2023-04-06T01:31:54;14.98;;;13.57;;
57457;SDS011;43304;52.332;6.110;2023-04-06T01:34:21;15.73;;;14.20;;
57457;SDS011;43304;52.332;6.110;2023-04-06T01:36:48;15.30;;;13.90;;
57457;SDS011;43304;52.332;6.110;2023-04-06T01:39:15;15.80;;;14.30;;
57457;SDS011;43304;52.332;6.110;2023-04-06T01:41:42;15.65;;;14.15;;
57457;SDS011;43304;52.332;6.110;2023-04-06T01:44:09;15.20;;;13.70;;
57457;SDS011;43304;52.332;6.110;2023-04-06T01:46:36;16.25;;;14.60;;
57457;SDS011;43304;52.332;6.110;2023-04-06T01:49:03;15.80;;;14.30;;
57457;SDS011;43304;52.332;6.110;2023-04-06T01:51:31;14.82;;;13.43;;
57457;SDS011;43304;52.332;6.110;2023-04-06T01:53:57;14.97;;;13.37;;
57457;SDS011;43304;52.332;6.110;2023-04-06T01:56:24;15.02;;;13.63;;
57457;SDS011;43304;52.332;6.110;2023-04-06T01:58:52;14.93;;;13.52;;
57457;SDS011;43304;52.332;6.110;2023-04-06T02:01:19;14.90;;;13.50;;
57457;SDS011;43304;52.332;6.110;2023-04-06T02:03:46;15.40;;;13.90;;
57457;SDS011;43304;52.332;6.110;2023-04-06T02:06:13;15.13;;;13.63;;
57457;SDS011;43304;52.332;6.110;2023-04-06T02:08:40;16.77;;;15.07;;
57457;SDS011;43304;52.332;6.110;2023-04-06T02:11:07;16.33;;;14.73;;
57457;SDS011;43304;52.332;6.110;2023-04-06T02:13:34;16.38;;;14.77;;
57457;SDS011;43304;52.332;6.110;2023-04-06T02:16:01;16.52;;;14.93;;
57457;SDS011;43304;52.332;6.110;2023-04-06T02:18:30;16.13;;;14.60;;
57457;SDS011;43304;52.332;6.110;2023-04-06T02:20:57;16.23;;;14.73;;
57457;SDS011;43304;52.332;6.110;2023-04-06T02:23:24;16.42;;;14.93;;
57457;SDS011;43304;52.332;6.110;2023-04-06T02:25:51;16.80;;;15.18;;
57457;SDS011;43304;52.332;6.110;2023-04-06T02:28:18;16.98;;;15.27;;
57457;SDS011;43304;52.332;6.110;2023-04-06T02:30:45;16.60;;;15.00;;
57457;SDS011;43304;52.332;6.110;2023-04-06T02:33:13;17.17;;;15.47;;
57457;SDS011;43304;52.332;6.110;2023-04-06T02:35:40;16.90;;;15.30;;
57457;SDS011;43304;52.332;6.110;2023-04-06T02:38:07;17.63;;;15.88;;
57457;SDS011;43304;52.332;6.110;2023-04-06T02:40:34;17.33;;;15.73;;
57457;SDS011;43304;52.332;6.110;2023-04-06T02:43:01;17.53;;;15.73;;
57457;SDS011;43304;52.332;6.110;2023-04-06T02:45:28;17.38;;;15.77;;
57457;SDS011;43304;52.332;6.110;2023-04-06T02:47:55;17.63;;;16.00;;
57457;SDS011;43304;52.332;6.110;2023-04-06T02:50:22;18.08;;;16.25;;
57457;SDS011;43304;52.332;6.110;2023-04-06T02:52:49;18.80;;;16.90;;
57457;SDS011;43304;52.332;6.110;2023-04-06T02:55:16;18.13;;;16.35;;
57457;SDS011;43304;52.332;6.110;2023-04-06T02:57:46;16.90;;;15.40;;
57457;SDS011;43304;52.332;6.110;2023-04-06T03:00:13;18.48;;;16.77;;
57457;SDS011;43304;52.332;6.110;2023-04-06T03:02:40;18.25;;;16.48;;
57457;SDS011;43304;52.332;6.110;2023-04-06T03:05:07;18.95;;;16.95;;
57457;SDS011;43304;52.332;6.110;2023-04-06T03:07:34;18.15;;;16.48;;
57457;SDS011;43304;52.332;6.110;2023-04-06T03:10:01;19.40;;;17.40;;
57457;SDS011;43304;52.332;6.110;2023-04-06T03:12:28;18.97;;;16.97;;
57457;SDS011;43304;52.332;6.110;2023-04-06T03:14:55;19.17;;;17.40;;
57457;SDS011;43304;52.332;6.110;2023-04-06T03:17:22;18.67;;;16.98;;
57457;SDS011;43304;52.332;6.110;2023-04-06T03:19:49;19.63;;;17.60;;
57457;SDS011;43304;52.332;6.110;2023-04-06T03:22:16;19.95;;;18.15;;
57457;SDS011;43304;52.332;6.110;2023-04-06T03:24:43;19.70;;;17.90;;
57457;SDS011;43304;52.332;6.110;2023-04-06T03:27:10;19.65;;;17.75;;
57457;SDS011;43304;52.332;6.110;2023-04-06T03:29:37;19.73;;;17.92;;
57457;SDS011;43304;52.332;6.110;2023-04-06T03:32:04;19.70;;;17.90;;
57457;SDS011;43304;52.332;6.110;2023-04-06T03:34:33;20.25;;;18.33;;
57457;SDS011;43304;52.332;6.110;2023-04-06T03:37:01;20.03;;;18.03;;
57457;SDS011;43304;52.332;6.110;2023-04-06T03:39:36;19.77;;;17.98;;
57457;SDS011;43304;52.332;6.110;2023-04-06T03:42:03;20.40;;;18.42;;
57457;SDS011;43304;52.332;6.110;2023-04-06T03:44:30;20.58;;;18.63;;
57457;SDS011;43304;52.332;6.110;2023-04-06T03:46:57;20.33;;;18.42;;
57457;SDS011;43304;52.332;6.110;2023-04-06T03:49:24;20.70;;;18.75;;
57457;SDS011;43304;52.332;6.110;2023-04-06T03:51:52;21.20;;;19.20;;
57457;SDS011;43304;52.332;6.110;2023-04-06T03:54:19;20.52;;;18.63;;
57457;SDS011;43304;52.332;6.110;2023-04-06T03:56:46;21.05;;;19.05;;
57457;SDS011;43304;52.332;6.110;2023-04-06T03:59:13;19.15;;;17.35;;
57457;SDS011;43304;52.332;6.110;2023-04-06T04:01:40;20.23;;;18.27;;
57457;SDS011;43304;52.332;6.110;2023-04-06T04:04:07;19.63;;;17.75;;
57457;SDS011;43304;52.332;6.110;2023-04-06T04:06:34;19.92;;;18.00;;
57457;SDS011;43304;52.332;6.110;2023-04-06T04:09:03;20.38;;;18.48;;
57457;SDS011;43304;52.332;6.110;2023-04-06T04:11:30;20.40;;;18.50;;
57457;SDS011;43304;52.332;6.110;2023-04-06T04:13:56;20.15;;;18.15;;
57457;SDS011;43304;52.332;6.110;2023-04-06T04:16:23;19.98;;;18.10;;
57457;SDS011;43304;52.332;6.110;2023-04-06T04:18:50;19.83;;;18.03;;
57457;SDS011;43304;52.332;6.110;2023-04-06T04:21:17;19.30;;;17.40;;
57457;SDS011;43304;52.332;6.110;2023-04-06T04:23:44;20.30;;;18.42;;
57457;SDS011;43304;52.332;6.110;2023-04-06T04:26:11;19.25;;;17.45;;
57457;SDS011;43304;52.332;6.110;2023-04-06T04:28:38;19.75;;;17.90;;
57457;SDS011;43304;52.332;6.110;2023-04-06T04:31:06;19.65;;;17.85;;
57457;SDS011;43304;52.332;6.110;2023-04-06T04:33:33;20.02;;;18.13;;
57457;SDS011;43304;52.332;6.110;2023-04-06T04:36:00;20.60;;;18.50;;
57457;SDS011;43304;52.332;6.110;2023-04-06T04:38:27;20.60;;;18.55;;
57457;SDS011;43304;52.332;6.110;2023-04-06T04:40:54;20.35;;;18.40;;
57457;SDS011;43304;52.332;6.110;2023-04-06T04:43:21;21.27;;;19.30;;
57457;SDS011;43304;52.332;6.110;2023-04-06T04:45:48;20.95;;;18.95;;
57457;SDS011;43304;52.332;6.110;2023-04-06T04:48:15;21.90;;;19.77;;
57457;SDS011;43304;52.332;6.110;2023-04-06T04:50:42;21.52;;;19.48;;
57457;SDS011;43304;52.332;6.110;2023-04-06T04:53:09;22.00;;;19.90;;
57457;SDS011;43304;52.332;6.110;2023-04-06T04:55:36;21.67;;;19.63;;
57457;SDS011;43304;52.332;6.110;2023-04-06T04:58:03;21.57;;;19.47;;
57457;SDS011;43304;52.332;6.110;2023-04-06T05:00:30;22.58;;;20.38;;
57457;SDS011;43304;52.332;6.110;2023-04-06T05:02:57;24.02;;;21.73;;
57457;SDS011;43304;52.332;6.110;2023-04-06T05:05:24;21.33;;;19.35;;
57457;SDS011;43304;52.332;6.110;2023-04-06T05:07:51;21.57;;;19.40;;
57457;SDS011;43304;52.332;6.110;2023-04-06T05:10:18;20.50;;;18.50;;
57457;SDS011;43304;52.332;6.110;2023-04-06T05:12:45;20.90;;;18.85;;
57457;SDS011;43304;52.332;6.110;2023-04-06T05:15:12;22.00;;;19.90;;
57457;SDS011;43304;52.332;6.110;2023-04-06T05:17:39;20.42;;;18.45;;
57457;SDS011;43304;52.332;6.110;2023-04-06T05:20:06;20.40;;;18.42;;
57457;SDS011;43304;52.332;6.110;2023-04-06T05:22:34;20.95;;;18.88;;
57457;SDS011;43304;52.332;6.110;2023-04-06T05:25:01;19.80;;;17.80;;
57457;SDS011;43304;52.332;6.110;2023-04-06T05:27:29;20.67;;;18.67;;
57457;SDS011;43304;52.332;6.110;2023-04-06T05:29:56;21.67;;;19.63;;
57457;SDS011;43304;52.332;6.110;2023-04-06T05:32:23;20.63;;;18.50;;
57457;SDS011;43304;52.332;6.110;2023-04-06T05:34:51;21.73;;;19.42;;
57457;SDS011;43304;52.332;6.110;2023-04-06T05:37:18;21.45;;;19.35;;
57457;SDS011;43304;52.332;6.110;2023-04-06T05:39:45;20.83;;;18.77;;
57457;SDS011;43304;52.332;6.110;2023-04-06T05:42:12;21.27;;;19.15;;
57457;SDS011;43304;52.332;6.110;2023-04-06T05:44:39;20.63;;;18.63;;
57457;SDS011;43304;52.332;6.110;2023-04-06T05:47:06;20.25;;;18.23;;
57457;SDS011;43304;52.332;6.110;2023-04-06T05:49:33;21.60;;;19.50;;
57457;SDS011;43304;52.332;6.110;2023-04-06T05:52:01;20.07;;;18.07;;
57457;SDS011;43304;52.332;6.110;2023-04-06T05:54:28;20.25;;;18.25;;
57457;SDS011;43304;52.332;6.110;2023-04-06T05:56:55;20.95;;;18.95;;
57457;SDS011;43304;52.332;6.110;2023-04-06T05:59:22;21.15;;;19.05;;
57457;SDS011;43304;52.332;6.110;2023-04-06T06:01:50;20.20;;;18.23;;
57457;SDS011;43304;52.332;6.110;2023-04-06T06:04:17;19.97;;;18.03;;
57457;SDS011;43304;52.332;6.110;2023-04-06T06:06:44;20.17;;;18.15;;
57457;SDS011;43304;52.332;6.110;2023-04-06T06:09:11;20.10;;;18.10;;
57457;SDS011;43304;52.332;6.110;2023-04-06T06:11:38;20.08;;;18.10;;
57457;SDS011;43304;52.332;6.110;2023-04-06T06:14:05;20.50;;;18.42;;
57457;SDS011;43304;52.332;6.110;2023-04-06T06:16:32;19.53;;;17.73;;
57457;SDS011;43304;52.332;6.110;2023-04-06T06:18:59;21.23;;;19.23;;
57457;SDS011;43304;52.332;6.110;2023-04-06T06:21:26;19.80;;;17.70;;
57457;SDS011;43304;52.332;6.110;2023-04-06T06:23:54;19.83;;;17.83;;
57457;SDS011;43304;52.332;6.110;2023-04-06T06:26:21;19.85;;;17.80;;
57457;SDS011;43304;52.332;6.110;2023-04-06T06:28:48;19.00;;;17.17;;
57457;SDS011;43304;52.332;6.110;2023-04-06T06:31:15;19.60;;;17.60;;
57457;SDS011;43304;52.332;6.110;2023-04-06T06:33:43;19.92;;;17.83;;
57457;SDS011;43304;52.332;6.110;2023-04-06T06:36:10;19.40;;;17.40;;
57457;SDS011;43304;52.332;6.110;2023-04-06T06:38:37;19.07;;;17.27;;
57457;SDS011;43304;52.332;6.110;2023-04-06T06:41:04;19.27;;;17.27;;
57457;SDS011;43304;52.332;6.110;2023-04-06T06:43:31;19.13;;;17.23;;
57457;SDS011;43304;52.332;6.110;2023-04-06T06:45:58;18.45;;;16.50;;
57457;SDS011;43304;52.332;6.110;2023-04-06T06:48:28;18.25;;;16.30;;
57457;SDS011;43304;52.332;6.110;2023-04-06T06:50:55;17.97;;;16.13;;
57457;SDS011;43304;52.332;6.110;2023-04-06T06:53:22;18.83;;;16.98;;
57457;SDS011;43304;52.332;6.110;2023-04-06T06:55:50;18.63;;;16.67;;
57457;SDS011;43304;52.332;6.110;2023-04-06T06:58:17;18.00;;;16.08;;
57457;SDS011;43304;52.332;6.110;2023-04-06T07:00:45;18.95;;;17.00;;
57457;SDS011;43304;52.332;6.110;2023-04-06T07:03:12;18.67;;;16.77;;
57457;SDS011;43304;52.332;6.110;2023-04-06T07:05:44;18.95;;;17.02;;
57457;SDS011;43304;52.332;6.110;2023-04-06T07:08:16;19.23;;;17.27;;
57457;SDS011;43304;52.332;6.110;2023-04-06T07:10:43;19.52;;;17.10;;
57457;SDS011;43304;52.332;6.110;2023-04-06T07:13:10;18.98;;;17.15;;
57457;SDS011;43304;52.332;6.110;2023-04-06T07:15:37;19.17;;;17.10;;
57457;SDS011;43304;52.332;6.110;2023-04-06T07:18:04;19.48;;;17.58;;
57457;SDS011;43304;52.332;6.110;2023-04-06T07:20:31;19.00;;;16.80;;
57457;SDS011;43304;52.332;6.110;2023-04-06T07:22:58;19.73;;;17.63;;
57457;SDS011;43304;52.332;6.110;2023-04-06T07:25:25;20.70;;;18.63;;
57457;SDS011;43304;52.332;6.110;2023-04-06T07:27:52;20.17;;;18.05;;
57457;SDS011;43304;52.332;6.110;2023-04-06T07:30:19;19.98;;;17.45;;
57457;SDS011;43304;52.332;6.110;2023-04-06T07:32:47;20.05;;;18.02;;
57457;SDS011;43304;52.332;6.110;2023-04-06T07:35:14;19.83;;;17.88;;
57457;SDS011;43304;52.332;6.110;2023-04-06T07:37:41;20.23;;;17.77;;
57457;SDS011;43304;52.332;6.110;2023-04-06T07:40:09;19.15;;;17.17;;
57457;SDS011;43304;52.332;6.110;2023-04-06T07:42:36;19.40;;;17.23;;
57457;SDS011;43304;52.332;6.110;2023-04-06T07:45:03;19.90;;;17.35;;
57457;SDS011;43304;52.332;6.110;2023-04-06T07:47:30;19.23;;;17.10;;
57457;SDS011;43304;52.332;6.110;2023-04-06T07:49:57;18.55;;;16.65;;
57457;SDS011;43304;52.332;6.110;2023-04-06T07:52:24;18.55;;;16.60;;
57457;SDS011;43304;52.332;6.110;2023-04-06T07:54:51;17.97;;;16.23;;
57457;SDS011;43304;52.332;6.110;2023-04-06T07:57:18;19.25;;;17.17;;
57457;SDS011;43304;52.332;6.110;2023-04-06T07:59:45;18.45;;;16.55;;
57457;SDS011;43304;52.332;6.110;2023-04-06T08:02:12;19.50;;;17.52;;
57457;SDS011;43304;52.332;6.110;2023-04-06T08:04:39;18.92;;;16.98;;
57457;SDS011;43304;52.332;6.110;2023-04-06T08:07:09;18.45;;;16.50;;
57457;SDS011;43304;52.332;6.110;2023-04-06T08:09:35;18.80;;;16.80;;
57457;SDS011;43304;52.332;6.110;2023-04-06T08:12:02;20.00;;;17.90;;
57457;SDS011;43304;52.332;6.110;2023-04-06T08:14:30;18.00;;;16.20;;
57457;SDS011;43304;52.332;6.110;2023-04-06T08:16:56;19.20;;;17.23;;
57457;SDS011;43304;52.332;6.110;2023-04-06T08:19:24;18.45;;;16.55;;
57457;SDS011;43304;52.332;6.110;2023-04-06T08:21:51;18.73;;;16.83;;
57457;SDS011;43304;52.332;6.110;2023-04-06T08:24:18;18.90;;;16.90;;
57457;SDS011;43304;52.332;6.110;2023-04-06T08:26:45;18.70;;;16.83;;
57457;SDS011;43304;52.332;6.110;2023-04-06T08:29:12;19.05;;;17.15;;
57457;SDS011;43304;52.332;6.110;2023-04-06T08:31:39;18.73;;;16.83;;
57457;SDS011;43304;52.332;6.110;2023-04-06T08:34:06;19.30;;;17.27;;
57457;SDS011;43304;52.332;6.110;2023-04-06T08:36:35;19.13;;;17.00;;
57457;SDS011;43304;52.332;6.110;2023-04-06T08:39:02;19.38;;;16.73;;
57457;SDS011;43304;52.332;6.110;2023-04-06T08:41:29;18.98;;;16.90;;
57457;SDS011;43304;52.332;6.110;2023-04-06T08:43:58;18.98;;;17.08;;
57457;SDS011;43304;52.332;6.110;2023-04-06T08:46:26;19.77;;;17.67;;
57457;SDS011;43304;52.332;6.110;2023-04-06T08:48:57;19.55;;;17.55;;
57457;SDS011;43304;52.332;6.110;2023-04-06T08:51:26;20.05;;;17.95;;
57457;SDS011;43304;52.332;6.110;2023-04-06T08:53:54;20.50;;;18.30;;
57457;SDS011;43304;52.332;6.110;2023-04-06T08:56:22;19.27;;;17.27;;
57457;SDS011;43304;52.332;6.110;2023-04-06T08:58:53;20.08;;;17.98;;
57457;SDS011;43304;52.332;6.110;2023-04-06T09:01:26;19.80;;;17.80;;
57457;SDS011;43304;52.332;6.110;2023-04-06T09:03:56;19.65;;;17.65;;
57457;SDS011;43304;52.332;6.110;2023-04-06T09:06:25;19.42;;;17.50;;
57457;SDS011;43304;52.332;6.110;2023-04-06T09:08:55;20.42;;;18.42;;
57457;SDS011;43304;52.332;6.110;2023-04-06T09:11:23;20.30;;;18.20;;
57457;SDS011;43304;52.332;6.110;2023-04-06T09:13:51;20.85;;;18.65;;
57457;SDS011;43304;52.332;6.110;2023-04-06T09:16:20;19.30;;;17.40;;
57457;SDS011;43304;52.332;6.110;2023-04-06T09:18:47;21.45;;;18.80;;
57457;SDS011;43304;52.332;6.110;2023-04-06T09:21:18;20.75;;;18.70;;
57457;SDS011;43304;52.332;6.110;2023-04-06T09:23:59;20.73;;;18.55;;
57457;SDS011;43304;52.332;6.110;2023-04-06T09:26:27;20.73;;;18.58;;
57457;SDS011;43304;52.332;6.110;2023-04-06T09:28:55;22.30;;;18.23;;
57457;SDS011;43304;52.332;6.110;2023-04-06T09:33:51;21.07;;;18.97;;
57457;SDS011;43304;52.332;6.110;2023-04-06T09:36:31;20.85;;;18.70;;
57457;SDS011;43304;52.332;6.110;2023-04-06T09:39:02;20.92;;;18.73;;
57457;SDS011;43304;52.332;6.110;2023-04-06T09:41:31;21.77;;;19.50;;
57457;SDS011;43304;52.332;6.110;2023-04-06T09:44:05;20.95;;;18.63;;
57457;SDS011;43304;52.332;6.110;2023-04-06T09:46:43;20.58;;;18.52;;
57457;SDS011;43304;52.332;6.110;2023-04-06T09:49:30;20.10;;;18.10;;
57457;SDS011;43304;52.332;6.110;2023-04-06T09:52:01;20.08;;;18.00;;
57457;SDS011;43304;52.332;6.110;2023-04-06T09:54:30;21.40;;;19.20;;
57457;SDS011;43304;52.332;6.110;2023-04-06T09:57:01;21.10;;;18.65;;
57457;SDS011;43304;52.332;6.110;2023-04-06T10:02:48;21.73;;;19.20;;
57457;SDS011;43304;52.332;6.110;2023-04-06T10:08:10;20.88;;;18.67;;
57457;SDS011;43304;52.332;6.110;2023-04-06T10:10:38;22.52;;;20.20;;
57457;SDS011;43304;52.332;6.110;2023-04-06T10:13:05;21.33;;;19.20;;
57457;SDS011;43304;52.332;6.110;2023-04-06T10:15:32;22.45;;;20.17;;
57457;SDS011;43304;52.332;6.110;2023-04-06T10:18:00;22.75;;;20.15;;
57457;SDS011;43304;52.332;6.110;2023-04-06T10:20:46;22.03;;;19.83;;
57457;SDS011;43304;52.332;6.110;2023-04-06T10:23:19;21.98;;;19.73;;
57457;SDS011;43304;52.332;6.110;2023-04-06T10:25:52;21.67;;;19.40;;
57457;SDS011;43304;52.332;6.110;2023-04-06T10:28:21;21.17;;;18.98;;
57457;SDS011;43304;52.332;6.110;2023-04-06T10:30:49;22.20;;;19.50;;
57457;SDS011;43304;52.332;6.110;2023-04-06T10:33:16;21.80;;;19.60;;
57457;SDS011;43304;52.332;6.110;2023-04-06T10:35:44;21.70;;;19.48;;
57457;SDS011;43304;52.332;6.110;2023-04-06T10:38:12;22.00;;;19.80;;
57457;SDS011;43304;52.332;6.110;2023-04-06T10:40:41;22.27;;;19.92;;
57457;SDS011;43304;52.332;6.110;2023-04-06T10:43:20;21.25;;;19.05;;
57457;SDS011;43304;52.332;6.110;2023-04-06T10:45:55;21.30;;;19.17;;
57457;SDS011;43304;52.332;6.110;2023-04-06T10:48:23;22.63;;;20.15;;
57457;SDS011;43304;52.332;6.110;2023-04-06T10:50:51;21.65;;;19.48;;
57457;SDS011;43304;52.332;6.110;2023-04-06T10:53:22;21.40;;;19.20;;
57457;SDS011;43304;52.332;6.110;2023-04-06T10:55:50;21.52;;;19.27;;
57457;SDS011;43304;52.332;6.110;2023-04-06T10:58:18;22.42;;;20.20;;
57457;SDS011;43304;52.332;6.110;2023-04-06T11:00:46;23.30;;;20.35;;
57457;SDS011;43304;52.332;6.110;2023-04-06T11:03:17;21.57;;;19.37;;
57457;SDS011;43304;52.332;6.110;2023-04-06T11:05:45;22.55;;;20.10;;
57457;SDS011;43304;52.332;6.110;2023-04-06T11:08:24;21.75;;;19.38;;
57457;SDS011;43304;52.332;6.110;2023-04-06T11:11:03;22.08;;;19.50;;
57457;SDS011;43304;52.332;6.110;2023-04-06T11:13:41;22.02;;;19.80;;
57457;SDS011;43304;52.332;6.110;2023-04-06T11:16:14;23.17;;;20.58;;
57457;SDS011;43304;52.332;6.110;2023-04-06T11:18:56;22.58;;;20.20;;
57457;SDS011;43304;52.332;6.110;2023-04-06T11:24:08;23.10;;;20.70;;
57457;SDS011;43304;52.332;6.110;2023-04-06T11:26:39;22.63;;;20.30;;
57457;SDS011;43304;52.332;6.110;2023-04-06T11:29:11;21.83;;;19.63;;
57457;SDS011;43304;52.332;6.110;2023-04-06T11:31:49;23.15;;;20.75;;
57457;SDS011;43304;52.332;6.110;2023-04-06T11:34:21;22.77;;;20.25;;
57457;SDS011;43304;52.332;6.110;2023-04-06T11:36:55;21.35;;;19.17;;
57457;SDS011;43304;52.332;6.110;2023-04-06T11:39:24;21.73;;;19.53;;
57457;SDS011;43304;52.332;6.110;2023-04-06T11:41:54;20.98;;;18.77;;
57457;SDS011;43304;52.332;6.110;2023-04-06T11:44:34;21.42;;;19.23;;
57457;SDS011;43304;52.332;6.110;2023-04-06T11:47:12;21.33;;;19.13;;
57457;SDS011;43304;52.332;6.110;2023-04-06T11:49:40;19.40;;;17.33;;
57457;SDS011;43304;52.332;6.110;2023-04-06T11:54:41;18.33;;;16.33;;
57457;SDS011;43304;52.332;6.110;2023-04-06T11:57:08;19.00;;;16.60;;
57457;SDS011;43304;52.332;6.110;2023-04-06T11:59:35;14.93;;;13.52;;
57457;SDS011;43304;52.332;6.110;2023-04-06T12:02:03;11.52;;;10.35;;
57457;SDS011;43304;52.332;6.110;2023-04-06T12:04:30;10.52;;;9.43;;
57457;SDS011;43304;52.332;6.110;2023-04-06T12:06:57;10.98;;;9.88;;
57457;SDS011;43304;52.332;6.110;2023-04-06T12:09:25;12.02;;;10.73;;
57457;SDS011;43304;52.332;6.110;2023-04-06T12:11:52;11.93;;;10.73;;
57457;SDS011;43304;52.332;6.110;2023-04-06T12:14:19;12.27;;;11.07;;
57457;SDS011;43304;52.332;6.110;2023-04-06T12:16:46;11.95;;;10.85;;
57457;SDS011;43304;52.332;6.110;2023-04-06T12:19:13;14.13;;;12.27;;
57457;SDS011;43304;52.332;6.110;2023-04-06T12:21:40;13.98;;;12.27;;
57457;SDS011;43304;52.332;6.110;2023-04-06T12:24:07;14.35;;;12.85;;
57457;SDS011;43304;52.332;6.110;2023-04-06T12:26:34;15.25;;;13.75;;
57457;SDS011;43304;52.332;6.110;2023-04-06T12:29:02;14.80;;;13.40;;
57457;SDS011;43304;52.332;6.110;2023-04-06T12:31:37;15.43;;;13.95;;
57457;SDS011;43304;52.332;6.110;2023-04-06T12:34:06;14.80;;;13.30;;
57457;SDS011;43304;52.332;6.110;2023-04-06T12:36:33;16.48;;;14.88;;
57457;SDS011;43304;52.332;6.110;2023-04-06T12:39:00;15.70;;;14.13;;
57457;SDS011;43304;52.332;6.110;2023-04-06T12:41:27;16.77;;;15.13;;
57457;SDS011;43304;52.332;6.110;2023-04-06T12:43:55;17.40;;;15.50;;
57457;SDS011;43304;52.332;6.110;2023-04-06T12:46:22;16.63;;;15.05;;
57457;SDS011;43304;52.332;6.110;2023-04-06T12:48:50;17.05;;;15.43;;
57457;SDS011;43304;52.332;6.110;2023-04-06T12:51:20;16.13;;;14.63;;
57457;SDS011;43304;52.332;6.110;2023-04-06T12:53:47;17.63;;;15.98;;
57457;SDS011;43304;52.332;6.110;2023-04-06T12:56:15;17.48;;;15.77;;
57457;SDS011;43304;52.332;6.110;2023-04-06T12:58:47;18.63;;;16.92;;
57457;SDS011;43304;52.332;6.110;2023-04-06T13:01:17;19.45;;;17.60;;
57457;SDS011;43304;52.332;6.110;2023-04-06T13:03:44;19.00;;;17.20;;
57457;SDS011;43304;52.332;6.110;2023-04-06T13:06:11;19.47;;;17.57;;
57457;SDS011;43304;52.332;6.110;2023-04-06T13:08:39;18.53;;;16.83;;
57457;SDS011;43304;52.332;6.110;2023-04-06T13:11:07;18.63;;;16.83;;
57457;SDS011;43304;52.332;6.110;2023-04-06T13:13:37;18.35;;;16.65;;
57457;SDS011;43304;52.332;6.110;2023-04-06T13:16:05;18.33;;;16.70;;
57457;SDS011;43304;52.332;6.110;2023-04-06T13:18:34;18.00;;;16.30;;
57457;SDS011;43304;52.332;6.110;2023-04-06T13:21:02;17.77;;;16.13;;
57457;SDS011;43304;52.332;6.110;2023-04-06T13:23:29;17.58;;;15.98;;
57457;SDS011;43304;52.332;6.110;2023-04-06T13:28:33;18.85;;;17.23;;
57457;SDS011;43304;52.332;6.110;2023-04-06T13:31:02;17.70;;;16.05;;
57457;SDS011;43304;52.332;6.110;2023-04-06T13:33:29;17.67;;;15.98;;
57457;SDS011;43304;52.332;6.110;2023-04-06T13:35:57;15.73;;;14.20;;
57457;SDS011;43304;52.332;6.110;2023-04-06T13:38:25;16.03;;;14.43;;
57457;SDS011;43304;52.332;6.110;2023-04-06T13:40:52;16.17;;;14.57;;
57457;SDS011;43304;52.332;6.110;2023-04-06T13:43:19;16.02;;;14.52;;
57457;SDS011;43304;52.332;6.110;2023-04-06T13:45:50;15.00;;;13.52;;
57457;SDS011;43304;52.332;6.110;2023-04-06T13:48:18;13.95;;;12.70;;
57457;SDS011;43304;52.332;6.110;2023-04-06T13:50:45;12.48;;;11.27;;
57457;SDS011;43304;52.332;6.110;2023-04-06T13:53:12;12.52;;;11.32;;
57457;SDS011;43304;52.332;6.110;2023-04-06T13:55:40;12.63;;;11.43;;
57457;SDS011;43304;52.332;6.110;2023-04-06T13:58:07;12.40;;;11.20;;
57457;SDS011;43304;52.332;6.110;2023-04-06T14:00:34;11.88;;;10.77;;
57457;SDS011;43304;52.332;6.110;2023-04-06T14:03:02;11.07;;;10.07;;
57457;SDS011;43304;52.332;6.110;2023-04-06T14:05:32;10.53;;;9.63;;
57457;SDS011;43304;52.332;6.110;2023-04-06T14:08:00;10.90;;;9.90;;
57457;SDS011;43304;52.332;6.110;2023-04-06T14:10:27;10.93;;;9.93;;
57457;SDS011;43304;52.332;6.110;2023-04-06T14:12:54;10.32;;;9.32;;
57457;SDS011;43304;52.332;6.110;2023-04-06T14:15:22;11.48;;;10.43;;
57457;SDS011;43304;52.332;6.110;2023-04-06T14:17:50;11.70;;;10.50;;
57457;SDS011;43304;52.332;6.110;2023-04-06T14:20:18;10.73;;;9.73;;
57457;SDS011;43304;52.332;6.110;2023-04-06T14:22:45;11.00;;;10.00;;
57457;SDS011;43304;52.332;6.110;2023-04-06T14:25:12;11.48;;;10.38;;
57457;SDS011;43304;52.332;6.110;2023-04-06T14:27:39;11.27;;;10.27;;
57457;SDS011;43304;52.332;6.110;2023-04-06T14:30:07;12.20;;;11.07;;
57457;SDS011;43304;52.332;6.110;2023-04-06T14:32:35;11.70;;;10.57;;
57457;SDS011;43304;52.332;6.110;2023-04-06T14:35:04;13.05;;;11.75;;
57457;SDS011;43304;52.332;6.110;2023-04-06T14:37:33;12.40;;;11.20;;
57457;SDS011;43304;52.332;6.110;2023-04-06T14:40:01;12.68;;;11.52;;
57457;SDS011;43304;52.332;6.110;2023-04-06T14:42:29;12.60;;;11.35;;